createdAt,value
2023-02-13T00:00:19.080Z,97.24
2023-02-13T00:02:45.541Z,98.10
2023-02-13T00:05:12.342Z,98.04
2023-02-13T00:07:38.760Z,97.61
2023-02-13T00:10:05.748Z,97.43
2023-02-13T00:12:32.191Z,97.08
2023-02-13T00:14:59.185Z,97.80
2023-02-13T00:17:25.816Z,98.08
2023-02-13T00:19:52.665Z,98.06
2023-02-13T00:22:19.083Z,98.46
2023-02-13T00:24:45.523Z,98.34
2023-02-13T00:27:11.921Z,98.36
2023-02-13T00:29:38.580Z,98.13
2023-02-13T00:32:05.323Z,98.30
2023-02-13T00:34:31.876Z,97.97
2023-02-13T00:36:58.230Z,97.81
2023-02-13T00:39:24.724Z,98.40
2023-02-13T00:41:51.317Z,98.41
2023-02-13T00:44:17.722Z,98.35
2023-02-13T00:46:44.224Z,98.83
2023-02-13T00:49:10.725Z,98.30
2023-02-13T00:51:37.136Z,98.31
2023-02-13T00:54:03.763Z,98.10
2023-02-13T00:56:30.136Z,98.03
2023-02-13T00:58:56.583Z,97.71
2023-02-13T01:01:22.990Z,98.38
2023-02-13T01:03:49.461Z,97.92
2023-02-13T01:06:15.896Z,98.58
2023-02-13T01:08:42.714Z,98.68
2023-02-13T01:11:09.249Z,97.56
2023-02-13T01:13:36.144Z,97.76
2023-02-13T01:16:02.966Z,98.18
2023-02-13T01:18:29.569Z,98.37
2023-02-13T01:21:02.032Z,97.44
2023-02-13T01:23:33.485Z,98.00
2023-02-13T01:26:00.398Z,98.38
2023-02-13T01:28:28.025Z,98.22
2023-02-13T01:30:56.568Z,98.19
2023-02-13T01:33:24.832Z,97.58
2023-02-13T01:35:51.826Z,98.09
2023-02-13T01:38:18.741Z,97.44
2023-02-13T01:40:52.986Z,97.94
2023-02-13T01:43:23.323Z,98.50
2023-02-13T01:45:54.523Z,97.83
2023-02-13T01:48:25.057Z,98.09
2023-02-13T01:51:00.891Z,98.16
2023-02-13T01:53:33.997Z,97.96
2023-02-13T01:56:05.545Z,98.96
2023-02-13T01:58:35.703Z,97.67
2023-02-13T02:01:03.049Z,98.74
2023-02-13T02:03:35.322Z,98.49
2023-02-13T02:06:02.622Z,98.66
2023-02-13T02:08:31.061Z,98.49
2023-02-13T02:11:03.841Z,99.07
2023-02-13T02:13:30.253Z,98.52
2023-02-13T02:15:56.713Z,98.16
2023-02-13T02:18:24.507Z,98.29
2023-02-13T02:21:10.864Z,98.39
2023-02-13T02:23:55.856Z,98.31
2023-02-13T02:27:12.916Z,97.78
2023-02-13T02:29:42.221Z,98.60
2023-02-13T02:32:39.554Z,98.19
2023-02-13T02:35:44.614Z,98.74
2023-02-13T02:38:26.152Z,97.52
2023-02-13T02:41:41.672Z,98.84
2023-02-13T02:44:22.230Z,98.43
2023-02-13T02:47:20.476Z,98.46
2023-02-13T02:50:01.993Z,98.48
2023-02-13T02:53:13.461Z,97.29
2023-02-13T02:55:58.294Z,97.01
2023-02-13T02:58:52.096Z,98.02
2023-02-13T03:01:41.786Z,98.02
2023-02-13T03:04:37.712Z,99.01
2023-02-13T03:07:09.659Z,98.31
2023-02-13T03:09:59.980Z,99.36
2023-02-13T03:12:54.368Z,97.92
2023-02-13T03:15:22.392Z,99.24
2023-02-13T03:18:07.505Z,98.71
2023-02-13T03:21:07.562Z,98.00
2023-02-13T03:23:38.804Z,98.50
2023-02-13T03:26:20.136Z,98.17
2023-02-13T03:29:23.126Z,97.96
2023-02-13T03:32:01.408Z,98.06
2023-02-13T03:34:52.511Z,98.57
2023-02-13T03:37:53.551Z,98.31
2023-02-13T03:40:33.813Z,98.50
2023-02-13T03:43:11.505Z,98.99
2023-02-13T03:45:53.238Z,97.73
2023-02-13T03:48:52.752Z,98.00
2023-02-13T03:51:28.641Z,98.59
2023-02-13T03:54:00.539Z,97.61
2023-02-13T03:56:48.264Z,98.88
2023-02-13T03:59:29.813Z,98.65
2023-02-13T04:02:12.771Z,98.70
2023-02-13T04:05:04.724Z,97.90
2023-02-13T04:07:31.979Z,98.30
2023-02-13T04:10:02.924Z,97.69
2023-02-13T04:12:53.302Z,99.50
2023-02-13T04:15:38.730Z,97.96
2023-02-13T04:18:15.314Z,97.93
2023-02-13T04:20:42.001Z,98.75
2023-02-13T04:23:10.462Z,99.23
2023-02-13T04:25:39.342Z,97.57
2023-02-13T04:28:06.445Z,98.31
2023-02-13T04:30:33.349Z,98.82
2023-02-13T04:32:59.743Z,97.69
2023-02-13T04:35:26.237Z,98.36
2023-02-13T04:37:52.885Z,99.10
2023-02-13T04:40:19.448Z,99.24
2023-02-13T04:42:48.995Z,98.72
2023-02-13T04:45:16.108Z,97.78
2023-02-13T04:47:42.858Z,98.26
2023-02-13T04:50:09.858Z,97.84
2023-02-13T04:52:36.307Z,98.10
2023-02-13T04:55:02.734Z,98.01
2023-02-13T04:57:29.317Z,99.50
2023-02-13T04:59:55.770Z,98.88
2023-02-13T05:02:22.097Z,97.45
2023-02-13T05:04:48.533Z,97.85
2023-02-13T05:07:14.974Z,97.19
2023-02-13T05:09:41.766Z,98.37
2023-02-13T05:12:08.399Z,98.78
2023-02-13T05:14:34.962Z,98.76
2023-02-13T05:17:01.365Z,98.44
2023-02-13T05:19:27.711Z,97.73
2023-02-13T05:22:12.805Z,98.28
2023-02-13T05:24:39.206Z,97.66
2023-02-13T05:27:05.596Z,97.59
2023-02-13T05:29:32.008Z,97.59
2023-02-13T05:31:59.868Z,97.83
2023-02-13T05:34:28.080Z,96.91
2023-02-13T05:36:55.121Z,98.17
2023-02-13T05:39:21.894Z,97.88
2023-02-13T05:41:48.824Z,97.56
2023-02-13T05:44:16.003Z,97.94
2023-02-13T05:46:44.919Z,97.98
2023-02-13T05:49:13.600Z,97.26
2023-02-13T05:51:40.226Z,97.80
2023-02-13T05:54:06.743Z,97.83
2023-02-13T05:56:33.158Z,98.30
2023-02-13T05:58:59.541Z,98.09
2023-02-13T06:01:26.368Z,97.89
2023-02-13T06:03:52.944Z,97.26
2023-02-13T06:06:19.660Z,97.43
2023-02-13T06:08:46.034Z,97.72
2023-02-13T06:11:12.453Z,97.80
2023-02-13T06:13:40.711Z,96.99
2023-02-13T06:16:11.771Z,98.42
2023-02-13T06:18:39.183Z,97.09
2023-02-13T06:21:07.020Z,97.86
2023-02-13T06:23:34.390Z,97.07
2023-02-13T06:26:08.774Z,97.21
2023-02-13T06:28:35.650Z,97.19
2023-02-13T06:31:02.790Z,96.65
2023-02-13T06:33:29.565Z,96.96
2023-02-13T06:35:57.218Z,96.63
2023-02-13T06:38:24.275Z,97.87
2023-02-13T06:40:51.629Z,98.82
2023-02-13T06:43:18.364Z,98.02
2023-02-13T06:45:46.860Z,98.01
2023-02-13T06:48:14.105Z,98.01
2023-02-13T06:50:40.458Z,97.50
2023-02-13T06:53:06.985Z,97.31
2023-02-13T06:55:33.432Z,97.78
2023-02-13T06:57:59.875Z,98.29
2023-02-13T07:00:27.165Z,98.13
2023-02-13T07:02:53.907Z,96.99
2023-02-13T07:05:20.630Z,98.41
2023-02-13T07:07:47.004Z,98.11
2023-02-13T07:10:14.685Z,97.56
2023-02-13T07:12:41.144Z,97.77
2023-02-13T07:15:08.164Z,97.79
2023-02-13T07:17:34.796Z,98.05
2023-02-13T07:20:01.337Z,98.55
2023-02-13T07:22:27.917Z,98.92
2023-02-13T07:24:54.480Z,98.72
2023-02-13T07:27:20.938Z,97.87
2023-02-13T07:29:47.358Z,98.26
2023-02-13T07:32:13.930Z,97.81
2023-02-13T07:34:52.228Z,98.68
2023-02-13T07:37:28.480Z,97.73
2023-02-13T07:39:55.040Z,98.71
2023-02-13T07:42:21.467Z,97.66
2023-02-13T07:44:47.969Z,97.53
2023-02-13T07:47:14.658Z,98.21
2023-02-13T07:49:41.243Z,97.54
2023-02-13T07:52:08.036Z,97.42
2023-02-13T07:54:34.403Z,97.79
2023-02-13T07:57:00.818Z,97.58
2023-02-13T07:59:27.370Z,97.39
2023-02-13T08:01:53.871Z,98.19
2023-02-13T08:04:20.382Z,96.72
2023-02-13T08:06:46.760Z,97.16
2023-02-13T08:09:40.790Z,96.90
2023-02-13T08:12:07.981Z,96.74
2023-02-13T08:14:34.754Z,96.67
2023-02-13T08:17:02.049Z,97.83
2023-02-13T08:19:28.539Z,97.64
2023-02-13T08:21:54.884Z,96.88
2023-02-13T08:24:21.350Z,96.54
2023-02-13T08:26:47.708Z,96.80
2023-02-13T08:29:14.321Z,97.11
2023-02-13T08:31:40.827Z,97.06
2023-02-13T08:34:07.182Z,96.87
2023-02-13T08:36:33.631Z,97.17
2023-02-13T08:39:00.217Z,96.53
2023-02-13T08:41:26.602Z,96.57
2023-02-13T08:43:54.139Z,95.66
2023-02-13T08:46:20.873Z,96.26
2023-02-13T08:48:47.431Z,96.08
2023-02-13T08:51:14.209Z,97.08
2023-02-13T08:53:40.843Z,96.59
2023-02-13T08:56:07.332Z,95.66
2023-02-13T08:58:34.140Z,95.87
2023-02-13T09:01:00.750Z,95.16
2023-02-13T09:03:27.199Z,96.10
2023-02-13T09:05:53.622Z,95.69
2023-02-13T09:08:20.096Z,96.13
2023-02-13T09:10:57.444Z,96.26
2023-02-13T09:13:23.942Z,96.12
2023-02-13T09:15:50.337Z,95.51
2023-02-13T09:18:17.845Z,95.61
2023-02-13T09:20:44.345Z,95.94
2023-02-13T09:23:11.426Z,95.70
2023-02-13T09:25:37.873Z,95.78
2023-02-13T09:28:04.425Z,95.04
2023-02-13T09:30:31.091Z,95.63
2023-02-13T09:32:57.562Z,95.24
2023-02-13T09:35:25.047Z,94.97
2023-02-13T09:37:51.500Z,94.36
2023-02-13T09:40:28.538Z,94.38
2023-02-13T09:43:01.280Z,94.22
2023-02-13T09:45:27.683Z,94.01
2023-02-13T09:47:54.422Z,94.21
2023-02-13T09:50:25.409Z,93.96
2023-02-13T09:52:54.217Z,93.07
2023-02-13T09:55:37.314Z,94.05
2023-02-13T09:58:33.508Z,93.36
2023-02-13T10:01:02.847Z,93.78
2023-02-13T10:03:34.149Z,93.64
2023-02-13T10:06:03.459Z,93.48
2023-02-13T10:08:47.719Z,92.83
2023-02-13T10:11:34.196Z,93.85
2023-02-13T10:14:17.719Z,92.92
2023-02-13T10:16:51.171Z,93.65
2023-02-13T10:19:46.975Z,92.82
2023-02-13T10:22:20.889Z,92.65
2023-02-13T10:24:54.270Z,92.44
2023-02-13T10:27:28.177Z,92.79
2023-02-13T10:30:05.544Z,92.95
2023-02-13T10:33:11.108Z,93.02
2023-02-13T10:35:38.331Z,92.21
2023-02-13T10:38:15.371Z,92.19
2023-02-13T10:40:47.889Z,92.80
2023-02-13T10:43:19.598Z,90.97
2023-02-13T10:46:11.582Z,91.42
2023-02-13T10:48:50.318Z,92.49
2023-02-13T10:51:45.289Z,91.84
2023-02-13T10:54:20.961Z,90.79
2023-02-13T10:57:03.991Z,91.50
2023-02-13T11:00:04.117Z,91.63
2023-02-13T11:02:34.586Z,91.57
2023-02-13T11:05:05.178Z,91.18
2023-02-13T11:07:32.029Z,90.98
2023-02-13T11:10:09.008Z,90.06
2023-02-13T11:12:35.525Z,90.71
2023-02-13T11:15:07.450Z,91.01
2023-02-13T11:17:40.940Z,90.71
2023-02-13T11:20:28.737Z,90.59
2023-02-13T11:22:56.933Z,90.94
2023-02-13T11:25:26.537Z,90.05
2023-02-13T11:28:10.068Z,90.56
2023-02-13T11:30:39.101Z,89.82
2023-02-13T11:33:17.482Z,89.82
2023-02-13T11:35:45.537Z,89.52
2023-02-13T11:38:21.075Z,87.76
2023-02-13T11:41:03.309Z,88.09
2023-02-13T11:43:35.221Z,88.85
2023-02-13T11:46:06.757Z,88.85
2023-02-13T11:48:33.702Z,88.70
2023-02-13T11:51:00.255Z,88.33
2023-02-13T11:53:35.849Z,88.53
2023-02-13T11:56:11.969Z,88.04
2023-02-13T11:58:38.902Z,88.44
2023-02-13T12:01:21.781Z,88.17
2023-02-13T12:04:17.964Z,88.16
2023-02-13T12:07:02.759Z,87.76
2023-02-13T12:09:31.964Z,87.41
2023-02-13T12:12:02.554Z,88.63
2023-02-13T12:14:39.671Z,88.25
2023-02-13T12:17:29.157Z,88.54
2023-02-13T12:19:57.635Z,87.63
2023-02-13T12:22:48.509Z,87.48
2023-02-13T12:25:35.630Z,87.28
2023-02-13T12:28:20.066Z,86.86
2023-02-13T12:30:59.000Z,87.16
2023-02-13T12:33:43.439Z,86.93
2023-02-13T12:36:21.266Z,86.92
2023-02-13T12:39:18.094Z,87.09
2023-02-13T12:42:19.586Z,85.64
2023-02-13T12:45:02.532Z,86.06
2023-02-13T12:47:45.669Z,86.25
2023-02-13T12:50:37.977Z,85.71
2023-02-13T12:53:29.543Z,85.75
2023-02-13T12:56:37.133Z,86.43
2023-02-13T12:59:36.098Z,86.00
2023-02-13T13:02:16.280Z,84.93
2023-02-13T13:05:18.263Z,85.19
2023-02-13T13:08:00.868Z,85.15
2023-02-13T13:10:36.120Z,85.09
2023-02-13T13:13:02.448Z,85.06
2023-02-13T13:15:48.861Z,85.20
2023-02-13T13:18:36.418Z,85.02
2023-02-13T13:21:24.798Z,83.84
2023-02-13T13:24:10.052Z,83.98
2023-02-13T13:26:41.777Z,84.60
2023-02-13T13:29:18.736Z,84.57
2023-02-13T13:31:50.747Z,84.49
2023-02-13T13:34:22.781Z,84.94
2023-02-13T13:36:53.775Z,84.71
2023-02-13T13:39:30.449Z,84.55
2023-02-13T13:42:02.929Z,84.42
2023-02-13T13:45:16.339Z,84.35
2023-02-13T13:48:01.522Z,83.92
2023-02-13T13:50:31.240Z,84.23
2023-02-13T13:53:23.381Z,84.54
2023-02-13T13:55:49.821Z,84.66
2023-02-13T13:58:46.658Z,84.25
2023-02-13T14:01:16.374Z,84.67
2023-02-13T14:03:50.911Z,84.16
2023-02-13T14:06:20.067Z,83.49
2023-02-13T14:08:46.383Z,83.89
2023-02-13T14:11:37.012Z,83.92
2023-02-13T14:14:28.953Z,83.07
2023-02-13T14:16:57.750Z,83.15
2023-02-13T14:19:24.272Z,83.56
2023-02-13T14:21:50.934Z,83.14
2023-02-13T14:24:20.258Z,82.24
2023-02-13T14:27:05.210Z,82.44
2023-02-13T14:29:33.967Z,82.81
2023-02-13T14:32:16.302Z,82.45
2023-02-13T14:34:49.743Z,82.70
2023-02-13T14:37:23.046Z,83.14
2023-02-13T14:40:18.444Z,82.83
2023-02-13T14:42:49.954Z,82.83
2023-02-13T14:45:20.866Z,82.69
2023-02-13T14:47:56.467Z,83.09
2023-02-13T14:50:37.007Z,83.74
2023-02-13T14:53:10.849Z,83.87
2023-02-13T14:55:45.349Z,83.28
2023-02-13T14:58:25.762Z,83.09
2023-02-13T15:01:00.805Z,83.22
2023-02-13T15:03:31.893Z,83.35
2023-02-13T15:06:03.423Z,83.47
2023-02-13T15:08:40.957Z,83.46
2023-02-13T15:11:27.465Z,83.07
2023-02-13T15:13:53.919Z,83.57
2023-02-13T15:16:20.463Z,83.42
2023-02-13T15:18:52.891Z,83.12
2023-02-13T15:21:23.048Z,83.46
2023-02-13T15:23:52.517Z,83.45
2023-02-13T15:26:26.296Z,83.10
2023-02-13T15:29:29.385Z,83.69
2023-02-13T15:32:00.230Z,79.76
2023-02-13T15:34:35.833Z,78.64
2023-02-13T15:37:03.093Z,79.05
2023-02-13T15:39:31.399Z,81.19
2023-02-13T15:42:01.100Z,83.44
2023-02-13T15:44:31.204Z,84.31
2023-02-13T15:47:30.404Z,84.37
2023-02-13T15:49:57.372Z,84.07
2023-02-13T15:52:36.412Z,84.30
2023-02-13T15:55:03.835Z,85.08
2023-02-13T15:57:31.120Z,84.54
2023-02-13T16:00:00.194Z,84.65
2023-02-13T16:03:01.487Z,85.33
2023-02-13T16:05:39.884Z,85.62
2023-02-13T16:08:31.428Z,85.37
2023-02-13T16:11:16.104Z,85.70
2023-02-13T16:13:59.506Z,86.79
2023-02-13T16:16:28.199Z,86.37
2023-02-13T16:18:55.129Z,86.06
2023-02-13T16:21:27.427Z,86.20
2023-02-13T16:24:00.115Z,86.48
2023-02-13T16:26:26.900Z,86.39
2023-02-13T16:28:55.082Z,86.42
2023-02-13T16:31:22.871Z,86.62
2023-02-13T16:33:49.495Z,86.90
2023-02-13T16:36:15.939Z,87.03
2023-02-13T16:38:50.209Z,86.83
2023-02-13T16:41:19.522Z,87.27
2023-02-13T16:43:57.360Z,86.36
2023-02-13T16:46:41.722Z,85.16
2023-02-13T16:49:08.055Z,86.10
2023-02-13T16:52:17.413Z,86.12
2023-02-13T16:55:03.085Z,85.92
2023-02-13T16:57:32.950Z,86.03
2023-02-13T17:00:21.925Z,86.21
2023-02-13T17:02:50.697Z,85.25
2023-02-13T17:05:37.649Z,84.48
2023-02-13T17:08:04.246Z,85.21
2023-02-13T17:10:36.714Z,85.12
2023-02-13T17:13:16.577Z,85.68
2023-02-13T17:15:44.867Z,86.31
2023-02-13T17:18:11.361Z,84.84
2023-02-13T17:20:41.691Z,82.88
2023-02-13T17:23:17.270Z,84.08
2023-02-13T17:25:46.136Z,84.13
2023-02-13T17:28:24.886Z,85.04
2023-02-13T17:30:56.153Z,85.65
2023-02-13T17:33:29.221Z,86.15
2023-02-13T17:35:56.129Z,83.93
2023-02-13T17:38:23.015Z,83.96
2023-02-13T17:40:49.524Z,84.99
2023-02-13T17:43:18.196Z,86.32
2023-02-13T17:45:45.634Z,86.69
2023-02-13T17:48:12.208Z,85.90
2023-02-13T17:50:38.860Z,85.50
2023-02-13T17:53:11.928Z,85.90
2023-02-13T17:55:38.290Z,85.43
2023-02-13T17:58:05.690Z,85.83
2023-02-13T18:00:33.668Z,86.10
2023-02-13T18:03:00.945Z,85.55
2023-02-13T18:05:28.348Z,86.45
2023-02-13T18:07:54.871Z,86.13
2023-02-13T18:10:27.364Z,85.62
2023-02-13T18:12:57.018Z,84.84
2023-02-13T18:15:24.311Z,84.28
2023-02-13T18:17:51.220Z,84.86
2023-02-13T18:20:20.648Z,84.88
2023-02-13T18:22:50.350Z,84.76
2023-02-13T18:25:17.746Z,84.60
2023-02-13T18:27:44.951Z,84.88
2023-02-13T18:30:14.437Z,83.33
2023-02-13T18:32:41.327Z,83.70
2023-02-13T18:35:08.264Z,84.09
2023-02-13T18:37:35.635Z,83.69
2023-02-13T18:40:02.135Z,83.88
2023-02-13T18:42:28.672Z,84.08
2023-02-13T18:44:55.154Z,84.73
2023-02-13T18:47:22.629Z,85.53
2023-02-13T18:49:49.541Z,85.60
2023-02-13T18:52:16.389Z,85.95
2023-02-13T18:54:42.795Z,84.92
2023-02-13T18:57:09.219Z,84.74
2023-02-13T18:59:35.642Z,85.61
2023-02-13T19:02:04.181Z,84.78
2023-02-13T19:04:31.461Z,85.68
2023-02-13T19:06:58.064Z,85.69
2023-02-13T19:09:24.453Z,85.92
2023-02-13T19:11:51.577Z,86.38
2023-02-13T19:14:18.382Z,85.78
2023-02-13T19:16:45.025Z,84.94
2023-02-13T19:19:11.530Z,85.80
2023-02-13T19:21:38.904Z,85.68
2023-02-13T19:24:08.727Z,85.73
2023-02-13T19:26:35.790Z,86.25
2023-02-13T19:29:02.933Z,85.80
2023-02-13T19:31:31.469Z,85.53
2023-02-13T19:34:00.381Z,86.29
2023-02-13T19:36:28.816Z,86.06
2023-02-13T19:39:00.959Z,86.07
2023-02-13T19:41:28.973Z,86.95
2023-02-13T19:43:55.596Z,86.79
2023-02-13T19:46:30.789Z,87.24
2023-02-13T19:48:57.944Z,87.40
2023-02-13T19:51:27.744Z,87.76
2023-02-13T19:54:02.868Z,88.68
2023-02-13T19:56:30.628Z,88.09
2023-02-13T19:58:57.072Z,88.14
2023-02-13T20:01:26.039Z,88.15
2023-02-13T20:03:53.081Z,87.61
2023-02-13T20:06:22.412Z,87.43
2023-02-13T20:08:49.644Z,87.30
2023-02-13T20:11:17.518Z,87.47
2023-02-13T20:13:44.358Z,87.73
2023-02-13T20:16:13.452Z,87.51
2023-02-13T20:18:40.284Z,86.77
2023-02-13T20:21:08.000Z,87.37
2023-02-13T20:23:34.636Z,87.20
2023-02-13T20:26:05.906Z,87.63
2023-02-13T20:28:32.488Z,87.54
2023-02-13T20:31:00.614Z,86.82
2023-02-13T20:33:27.329Z,86.94
2023-02-13T20:35:53.823Z,87.27
2023-02-13T20:38:20.210Z,87.05
2023-02-13T20:40:46.644Z,87.00
2023-02-13T20:43:13.094Z,86.43
2023-02-13T20:45:39.568Z,87.07
2023-02-13T20:48:06.047Z,87.13
2023-02-13T20:50:32.502Z,87.42
2023-02-13T20:52:58.924Z,88.00
2023-02-13T20:55:25.379Z,86.78
2023-02-13T20:57:51.926Z,87.21
2023-02-13T21:00:18.508Z,88.22
2023-02-13T21:02:45.115Z,87.64
2023-02-13T21:05:12.848Z,86.90
2023-02-13T21:07:39.370Z,87.66
2023-02-13T21:10:07.264Z,87.74
2023-02-13T21:12:34.699Z,87.30
2023-02-13T21:15:01.085Z,88.34
2023-02-13T21:17:27.528Z,88.31
2023-02-13T21:19:53.972Z,87.86
2023-02-13T21:22:20.582Z,88.72
2023-02-13T21:24:50.218Z,88.57
2023-02-13T21:27:16.939Z,88.98
2023-02-13T21:29:43.422Z,88.94
2023-02-13T21:32:10.081Z,88.98
2023-02-13T21:34:36.704Z,88.36
2023-02-13T21:37:03.312Z,89.07
2023-02-13T21:39:29.913Z,89.31
2023-02-13T21:41:56.543Z,88.53
2023-02-13T21:44:23.119Z,88.61
2023-02-13T21:46:50.459Z,88.13
2023-02-13T21:49:18.634Z,88.41
2023-02-13T21:51:45.453Z,88.19
2023-02-13T21:54:12.543Z,87.49
2023-02-13T21:56:40.626Z,88.32
2023-02-13T21:59:07.732Z,88.09
2023-02-13T22:01:37.726Z,88.54
2023-02-13T22:04:07.045Z,88.74
2023-02-13T22:06:37.395Z,88.01
2023-02-13T22:09:09.547Z,88.31
2023-02-13T22:11:36.453Z,88.16
2023-02-13T22:14:05.286Z,88.22
2023-02-13T22:16:33.836Z,88.40
2023-02-13T22:19:00.874Z,89.02
2023-02-13T22:21:29.545Z,88.61
2023-02-13T22:23:56.352Z,88.75
2023-02-13T22:26:27.922Z,89.27
2023-02-13T22:28:57.969Z,88.38
2023-02-13T22:31:25.957Z,88.43
2023-02-13T22:34:09.374Z,88.63
2023-02-13T22:36:40.150Z,88.84
2023-02-13T22:39:09.479Z,88.48
2023-02-13T22:41:36.432Z,89.13
2023-02-13T22:44:03.639Z,88.54
2023-02-13T22:46:32.766Z,89.21
2023-02-13T22:49:00.022Z,89.32
2023-02-13T22:51:29.869Z,89.62
2023-02-13T22:53:57.689Z,88.80
2023-02-13T22:56:25.914Z,90.04
2023-02-13T22:58:52.385Z,89.13
2023-02-13T23:01:21.323Z,89.78
2023-02-13T23:03:47.802Z,89.62
2023-02-13T23:06:15.446Z,89.68
2023-02-13T23:08:42.909Z,89.36
2023-02-13T23:11:33.827Z,89.58
2023-02-13T23:14:00.268Z,88.79
2023-02-13T23:16:27.807Z,89.35
2023-02-13T23:18:56.343Z,89.35
2023-02-13T23:21:24.022Z,89.35
2023-02-13T23:23:50.731Z,89.28
2023-02-13T23:26:17.701Z,89.78
2023-02-13T23:28:44.201Z,89.63
2023-02-13T23:31:10.752Z,89.25
2023-02-13T23:33:37.222Z,89.34
2023-02-13T23:36:04.042Z,89.17
2023-02-13T23:38:30.593Z,90.00
2023-02-13T23:40:57.279Z,90.03
2023-02-13T23:43:23.982Z,89.99
2023-02-13T23:45:50.394Z,90.05
2023-02-13T23:48:16.850Z,90.17
2023-02-13T23:50:43.330Z,90.58
2023-02-13T23:53:09.907Z,90.22
2023-02-13T23:55:36.482Z,89.85
2023-02-13T23:58:03.028Z,90.47
